Time;durP1;ratioP1;P1;durP2;ratioP2;P2;SDS_P1;SDS_P2;PMS_P1;PMS_P2;Temp;Humidity;BMP_temperature;BMP_pressure;BME280_temperature;BME280_humidity;BME280_pressure;Samples;Min_cycle;Max_cycle;Signal;HPM_P1;HPM_P2
2024/01/26 00:00:05;;;;;;;;;;;;;;;12.27;84.62;102137.53;10339541;28;96926;-78
2024/01/26 00:05:09;;;;;;;;;;;;;;;12.31;84.63;102141.84;10372710;28;97512;-78
2024/01/26 00:10:12;;;;;;;;;;;;;;;12.31;84.80;102144.50;10362111;28;96691;-78
2024/01/26 00:15:17;;;;;;;;;;;;;;;12.26;84.60;102138.41;10330782;28;97119;-78
2024/01/26 00:20:20;;;;;;;;;;;;;;;12.29;84.35;102133.97;10366917;28;97029;-78
2024/01/26 00:25:29;;;;;;;;;;;;;;;12.23;84.75;102130.56;10372000;28;97218;-78
2024/01/26 00:30:33;;;;;;;;;;;;;;;12.26;84.77;102126.09;10372032;28;96734;-78
2024/01/26 00:35:37;;;;;;;;;;;;;;;12.16;85.02;102121.88;10361411;28;96648;-78
2024/01/26 00:40:40;;;;;;;;;;;;;;;12.22;84.85;102121.75;10332361;28;97203;-78
2024/01/26 00:45:45;;;;;;;;;;;;;;;12.19;85.00;102119.19;10329593;28;96879;-78
2024/01/26 00:50:50;;;;;;;;;;;;;;;12.15;84.95;102119.28;10337222;28;96990;-78
2024/01/26 00:55:53;;;;;;;;;;;;;;;12.11;85.32;102112.28;10370895;28;96744;-78
2024/01/26 01:00:58;;;;;;;;;;;;;;;12.11;85.46;102112.28;10347295;28;97315;-78
2024/01/26 01:06:01;;;;;;;;;;;;;;;12.12;85.53;102117.53;10329796;28;96918;-78
2024/01/26 01:11:05;;;;;;;;;;;;;;;12.12;85.41;102111.38;10363150;28;96694;-78
2024/01/26 01:16:12;;;;;;;;;;;;;;;12.11;85.34;102109.66;10370221;28;97259;-78
2024/01/26 01:21:15;;;;;;;;;;;;;;;12.05;85.25;102104.47;10370401;28;96627;-78
2024/01/26 01:26:18;;;;;;;;;;;;;;;12.05;85.85;102112.38;10370179;28;97275;-78
2024/01/26 01:31:23;;;;;;;;;;;;;;;12.04;85.67;102097.44;10355813;28;96735;-78
2024/01/26 01:36:26;;;;;;;;;;;;;;;12.03;86.03;102098.38;10329361;28;96656;-78
2024/01/26 01:41:29;;;;;;;;;;;;;;;12.06;85.79;102108.84;10333005;28;96714;-78
2024/01/26 01:46:34;;;;;;;;;;;;;;;12.06;85.68;102100.94;10369651;28;97031;-78
2024/01/26 01:51:38;;;;;;;;;;;;;;;12.01;86.02;102100.16;10369010;28;96658;-78
2024/01/26 01:56:43;;;;;;;;;;;;;;;11.99;86.03;102104.56;10372729;28;97366;-78
2024/01/26 02:01:48;;;;;;;;;;;;;;;11.96;86.24;102107.28;10366831;28;97506;-78
2024/01/26 02:06:58;;;;;;;;;;;;;;;12.00;85.79;102106.31;10368390;28;96708;-78
2024/01/26 02:12:01;;;;;;;;;;;;;;;11.97;86.17;102106.34;10335032;28;97075;-78
2024/01/26 02:17:06;;;;;;;;;;;;;;;11.93;86.42;102104.66;10351990;28;96594;-78
2024/01/26 02:22:10;;;;;;;;;;;;;;;11.93;86.24;102102.91;10375838;28;96704;-78
2024/01/26 02:27:14;;;;;;;;;;;;;;;11.96;86.03;102094.06;10343681;28;96851;-78
2024/01/26 02:32:18;;;;;;;;;;;;;;;11.92;86.48;102101.16;10336510;28;96737;-78
2024/01/26 02:37:22;;;;;;;;;;;;;;;11.91;86.43;102099.41;10375300;28;97252;-78
2024/01/26 02:42:29;;;;;;;;;;;;;;;11.85;86.66;102098.63;10374038;28;96716;-78
2024/01/26 02:47:32;;;;;;;;;;;;;;;11.91;86.56;102098.56;10374976;28;97177;-78
2024/01/26 02:52:37;;;;;;;;;;;;;;;11.89;86.48;102092.44;10374669;28;96670;-78
2024/01/26 02:57:41;;;;;;;;;;;;;;;11.84;86.55;102089.00;10359954;28;97162;-78
2024/01/26 03:02:45;;;;;;;;;;;;;;;11.83;86.64;102092.50;10333326;28;96668;-78
2024/01/26 03:07:48;;;;;;;;;;;;;;;11.82;86.59;102096.91;10347614;28;96684;-78
2024/01/26 03:12:54;;;;;;;;;;;;;;;11.78;86.90;102083.81;10374182;28;96704;-78
2024/01/26 03:17:58;;;;;;;;;;;;;;;11.70;87.37;102080.41;10374734;28;96573;-78
2024/01/26 03:23:02;;;;;;;;;;;;;;;11.68;87.13;102083.09;10372556;28;96891;-78
2024/01/26 03:28:08;;;;;;;;;;;;;;;11.68;87.21;102092.75;10309103;28;97320;-78
2024/01/26 03:33:12;;;;;;;;;;;;;;;11.63;87.53;102100.72;10319638;28;97478;-78
2024/01/26 03:38:16;;;;;;;;;;;;;;;11.65;87.79;102095.44;10290791;28;96716;-78
2024/01/26 03:43:23;;;;;;;;;;;;;;;11.66;87.79;102084.00;10346493;28;97406;-78
2024/01/26 03:48:27;;;;;;;;;;;;;;;11.59;88.22;102084.97;10372813;28;96735;-78
2024/01/26 03:53:30;;;;;;;;;;;;;;;11.59;87.83;102083.22;10373312;28;97027;-78
2024/01/26 03:58:38;;;;;;;;;;;;;;;11.63;87.86;102071.69;10349332;28;96737;-78
2024/01/26 04:03:43;;;;;;;;;;;;;;;11.62;87.38;102066.47;10369881;28;96974;-78
2024/01/26 04:08:47;;;;;;;;;;;;;;;11.57;87.83;102073.56;10332367;28;96686;-78
2024/01/26 04:13:54;;;;;;;;;;;;;;;11.52;88.03;102073.66;10330790;28;96831;-78
2024/01/26 04:18:58;;;;;;;;;;;;;;;11.47;88.29;102075.50;10371162;28;96727;-78
2024/01/26 04:24:02;;;;;;;;;;;;;;;11.50;87.90;102082.47;10344154;28;96982;-78
2024/01/26 04:29:07;;;;;;;;;;;;;;;11.50;88.19;102077.19;10330387;28;96985;-78
2024/01/26 04:34:10;;;;;;;;;;;;;;;11.48;87.98;102077.22;10337120;28;97509;-78
2024/01/26 04:39:13;;;;;;;;;;;;;;;11.45;88.67;102079.91;10330478;28;96734;-78
2024/01/26 04:44:18;;;;;;;;;;;;;;;11.47;88.13;102083.41;10330143;28;96871;-78
2024/01/26 04:49:21;;;;;;;;;;;;;;;11.46;88.10;102096.59;10341634;28;96781;-78
2024/01/26 04:54:26;;;;;;;;;;;;;;;11.46;88.08;102101.88;10371439;28;96710;-78
2024/01/26 04:59:32;;;;;;;;;;;;;;;11.41;88.21;102085.25;10371960;28;96583;-78
2024/01/26 05:04:36;;;;;;;;;;;;;;;11.38;88.63;102084.41;10353969;28;97357;-78
2024/01/26 05:09:41;;;;;;;;;;;;;;;11.34;88.49;102092.34;10368656;28;96585;-78
2024/01/26 05:14:52;;;;;;;;;;;;;;;11.32;88.40;102076.56;10369433;28;96679;-78
2024/01/26 05:19:56;;;;;;;;;;;;;;;11.37;88.17;102072.09;10360456;28;96759;-78
2024/01/26 05:25:00;;;;;;;;;;;;;;;11.32;88.39;102063.38;10342529;28;97139;-78
2024/01/26 05:30:08;;;;;;;;;;;;;;;11.28;88.60;102058.19;10297832;28;97314;-78
2024/01/26 05:35:12;;;;;;;;;;;;;;;11.24;88.42;102065.25;10336050;28;96784;-78
2024/01/26 05:40:16;;;;;;;;;;;;;;;11.21;88.44;102060.03;10347331;28;96811;-78
2024/01/26 05:45:22;;;;;;;;;;;;;;;11.17;88.95;102071.50;10377162;28;96821;-78
2024/01/26 05:50:27;;;;;;;;;;;;;;;11.16;88.81;102069.75;10377001;28;96924;-78
2024/01/26 05:55:31;;;;;;;;;;;;;;;11.15;88.84;102073.28;10335658;28;96985;-78
2024/01/26 06:00:35;;;;;;;;;;;;;;;11.18;88.58;102073.22;10372955;28;96809;-78
2024/01/26 06:05:39;;;;;;;;;;;;;;;11.17;88.46;102074.13;10338488;28;96657;-78
2024/01/26 06:10:43;;;;;;;;;;;;;;;11.18;88.40;102065.31;10335050;28;96664;-78
2024/01/26 06:15:47;;;;;;;;;;;;;;;11.17;88.68;102062.72;10357635;28;97344;-78
2024/01/26 06:20:50;;;;;;;;;;;;;;;11.14;88.68;102075.94;10340205;28;96638;-78
2024/01/26 06:25:54;;;;;;;;;;;;;;;11.16;88.40;102074.16;10334545;28;96759;-78
2024/01/26 06:30:59;;;;;;;;;;;;;;;11.14;88.59;102076.81;10342776;28;96920;-78
2024/01/26 06:36:02;;;;;;;;;;;;;;;11.09;88.79;102081.28;10340501;28;96763;-78
2024/01/26 06:41:05;;;;;;;;;;;;;;;11.12;88.29;102081.22;10334798;28;96927;-78
2024/01/26 06:46:09;;;;;;;;;;;;;;;11.04;88.58;102083.03;10333296;28;96701;-78
2024/01/26 06:51:12;;;;;;;;;;;;;;;11.09;88.03;102086.56;10368554;28;97227;-78
2024/01/26 06:56:16;;;;;;;;;;;;;;;11.08;88.41;102089.13;10373563;28;96688;-78
2024/01/26 07:01:21;;;;;;;;;;;;;;;11.09;87.78;102099.72;10366245;28;97139;-78
2024/01/26 07:06:25;;;;;;;;;;;;;;;11.04;87.93;102104.09;10353608;28;96989;-78
2024/01/26 07:11:28;;;;;;;;;;;;;;;11.06;88.09;102101.50;10374423;28;96876;-78
2024/01/26 07:16:34;;;;;;;;;;;;;;;10.99;88.16;102105.09;10361067;28;96778;-78
2024/01/26 07:21:38;;;;;;;;;;;;;;;11.02;87.61;102113.81;10338655;28;97107;-78
2024/01/26 07:26:41;;;;;;;;;;;;;;;11.00;87.91;102104.19;10369021;28;97211;-78
2024/01/26 07:31:49;;;;;;;;;;;;;;;10.96;88.33;102095.44;10333210;28;96778;-78
2024/01/26 07:36:54;;;;;;;;;;;;;;;10.98;88.20;102106.84;10291313;28;96737;-78
2024/01/26 07:41:58;;;;;;;;;;;;;;;10.94;87.39;102115.66;10357622;28;97236;-78
2024/01/26 07:47:03;;;;;;;;;;;;;;;10.96;87.33;102110.38;10357619;28;96875;-78
2024/01/26 07:52:06;;;;;;;;;;;;;;;10.90;87.86;102111.34;10330755;28;96708;-78
2024/01/26 07:57:12;;;;;;;;;;;;;;;10.90;87.16;102121.88;10349505;28;96755;-78
2024/01/26 08:02:19;;;;;;;;;;;;;;;10.93;87.62;102129.72;10348055;28;96727;-78
2024/01/26 08:07:24;;;;;;;;;;;;;;;10.92;87.46;102135.88;10331390;28;96669;-78
2024/01/26 08:12:27;;;;;;;;;;;;;;;10.94;87.49;102134.09;10334684;28;97696;-78
2024/01/26 08:17:48;;;;;;;;;;;;;;;10.95;87.17;102133.22;10327979;22;96971;-78
2024/01/26 08:22:51;;;;;;;;;;;;;;;10.93;86.50;102137.63;10290879;28;96645;-78
2024/01/26 08:27:55;;;;;;;;;;;;;;;10.93;86.60;102142.00;10266833;28;98260;-78
2024/01/26 08:32:59;;;;;;;;;;;;;;;10.92;86.62;102137.66;10303863;28;96745;-78
2024/01/26 08:38:03;;;;;;;;;;;;;;;10.91;86.99;102135.88;10288003;28;97139;-78
2024/01/26 08:43:07;;;;;;;;;;;;;;;10.93;86.37;102137.63;10289454;28;96779;-78
2024/01/26 08:48:13;;;;;;;;;;;;;;;10.96;86.24;102134.06;10289705;28;97639;-78
2024/01/26 08:53:17;;;;;;;;;;;;;;;10.99;85.63;102155.97;10288907;28;97560;-78
2024/01/26 08:58:22;;;;;;;;;;;;;;;11.00;86.00;102154.22;10288877;28;97289;-78
2024/01/26 09:03:27;;;;;;;;;;;;;;;11.01;85.81;102166.50;10289831;28;97437;-78
2024/01/26 09:08:30;;;;;;;;;;;;;;;11.06;85.46;102165.56;10296280;28;96574;-78
2024/01/26 09:13:33;;;;;;;;;;;;;;;11.09;85.34;102183.16;10296608;28;96613;-78
2024/01/26 09:18:37;;;;;;;;;;;;;;;11.09;85.06;102170.84;10295264;28;96839;-78
2024/01/26 09:23:46;;;;;;;;;;;;;;;11.19;84.78;102184.78;10296055;28;96703;-78
2024/01/26 09:28:49;;;;;;;;;;;;;;;11.21;84.65;102177.75;10293960;28;96707;-78
2024/01/26 09:33:53;;;;;;;;;;;;;;;11.23;84.19;102181.22;10294950;28;96688;-78
2024/01/26 09:38:57;;;;;;;;;;;;;;;11.23;83.90;102181.22;10295429;28;96959;-78
2024/01/26 09:44:01;;;;;;;;;;;;;;;11.27;84.11;102183.81;10294816;28;97197;-78
2024/01/26 09:49:09;;;;;;;;;;;;;;;11.29;83.44;102203.09;10294309;28;96726;-78
2024/01/26 09:54:14;;;;;;;;;;;;;;;11.35;83.49;102184.56;10294997;28;96676;-78
2024/01/26 09:59:18;;;;;;;;;;;;;;;11.43;83.67;102186.25;10294104;28;96644;-78
2024/01/26 10:04:23;;;;;;;;;;;;;;;11.42;83.25;102179.25;10295027;28;96733;-78
2024/01/26 10:09:27;;;;;;;;;;;;;;;11.38;83.20;102179.28;10293923;28;97590;-78
2024/01/26 10:14:30;;;;;;;;;;;;;;;11.43;83.20;102175.69;10294194;28;96724;-78
2024/01/26 10:19:35;;;;;;;;;;;;;;;11.57;82.46;102165.84;10291252;28;98163;-78
2024/01/26 10:24:38;;;;;;;;;;;;;;;11.62;82.11;102190.38;10293592;28;97128;-78
2024/01/26 10:29:44;;;;;;;;;;;;;;;11.66;81.72;102171.88;10293792;28;96711;-78
2024/01/26 10:34:50;;;;;;;;;;;;;;;11.57;81.79;102176.41;10292679;28;97760;-78
2024/01/26 10:39:55;;;;;;;;;;;;;;;11.67;81.37;102172.75;10292904;28;96778;-78
2024/01/26 10:45:00;;;;;;;;;;;;;;;11.90;80.75;102168.03;10292384;28;96703;-77
2024/01/26 10:50:06;;;;;;;;;;;;;;;11.88;80.04;102172.44;10333205;28;97636;-78
2024/01/26 10:55:13;;;;;;;;;;;;;;;11.99;79.68;102163.50;10334914;28;96738;-78
2024/01/26 11:00:18;;;;;;;;;;;;;;;12.34;79.15;102155.88;10333123;28;96873;-78
2024/01/26 11:05:23;;;;;;;;;;;;;;;12.33;78.66;102154.16;10332484;28;97186;-78
2024/01/26 11:10:29;;;;;;;;;;;;;;;12.24;78.76;102150.75;10302179;28;97238;-78
2024/01/26 11:15:33;;;;;;;;;;;;;;;12.26;78.16;102151.63;10291150;28;96710;-78
2024/01/26 11:20:37;;;;;;;;;;;;;;;12.30;77.91;102156.84;10292391;28;97120;-78
2024/01/26 11:25:43;;;;;;;;;;;;;;;12.40;77.68;102150.50;10289831;28;97292;-78
2024/01/26 11:30:52;;;;;;;;;;;;;;;12.33;77.42;102127.75;10291314;28;97194;-78
2024/01/26 11:36:04;;;;;;;;;;;;;;;12.34;77.17;102129.47;10290788;28;96750;-78
2024/01/26 11:41:08;;;;;;;;;;;;;;;12.41;77.18;102122.34;10250726;28;97473;-78
2024/01/26 11:46:12;;;;;;;;;;;;;;;12.39;76.94;102132.91;10250561;28;96740;-78
2024/01/26 11:51:19;;;;;;;;;;;;;;;12.53;76.66;102124.78;10250601;28;97246;-78
2024/01/26 11:56:22;;;;;;;;;;;;;;;12.60;76.46;102112.31;10277942;28;97683;-78
2024/01/26 12:01:26;;;;;;;;;;;;;;;12.63;76.35;102120.19;10289212;28;96769;-78
2024/01/26 12:06:33;;;;;;;;;;;;;;;12.69;75.80;102098.97;10290187;28;96813;-78
2024/01/26 12:11:37;;;;;;;;;;;;;;;12.90;75.56;102107.34;10303045;28;96712;-78
2024/01/26 12:16:41;;;;;;;;;;;;;;;12.80;75.06;102100.50;10330172;28;96834;-78
2024/01/26 12:21:50;;;;;;;;;;;;;;;13.10;74.92;102091.09;10331096;28;97188;-78
2024/01/26 12:26:55;;;;;;;;;;;;;;;13.13;73.94;102096.31;10305927;28;97109;-78
2024/01/26 12:31:58;;;;;;;;;;;;;;;13.08;73.57;102091.13;10328524;28;96947;-78
2024/01/26 12:37:04;;;;;;;;;;;;;;;13.15;73.97;102066.31;10290077;28;96689;-78
2024/01/26 12:42:08;;;;;;;;;;;;;;;13.35;73.06;102056.16;10289244;28;96665;-78
2024/01/26 12:47:11;;;;;;;;;;;;;;;13.43;73.07;102045.44;10289395;28;96842;-78
2024/01/26 12:52:18;;;;;;;;;;;;;;;13.52;72.51;102027.56;10288299;28;96727;-78
2024/01/26 12:57:22;;;;;;;;;;;;;;;13.77;71.82;102019.03;10289271;28;97196;-78
2024/01/26 13:02:28;;;;;;;;;;;;;;;13.85;71.20;102007.34;10289520;28;96707;-78
2024/01/26 13:07:35;;;;;;;;;;;;;;;14.10;71.40;101997.91;10288817;28;96728;-78
2024/01/26 13:12:39;;;;;;;;;;;;;;;14.01;70.78;101994.59;10288734;28;96873;-78
2024/01/26 13:17:44;;;;;;;;;;;;;;;13.79;70.93;101998.69;10287733;28;97759;-78
2024/01/26 13:22:51;;;;;;;;;;;;;;;14.19;70.56;101986.22;10289206;28;97693;-78
2024/01/26 13:27:54;;;;;;;;;;;;;;;14.07;70.16;101975.94;10289570;28;96665;-78
2024/01/26 13:32:57;;;;;;;;;;;;;;;14.24;69.53;101973.72;10287989;28;97336;-78
2024/01/26 13:38:02;;;;;;;;;;;;;;;14.33;69.59;101960.22;10312132;28;96912;-77
2024/01/26 13:43:05;;;;;;;;;;;;;;;14.21;69.57;101963.22;10327784;28;96981;-78
2024/01/26 13:48:08;;;;;;;;;;;;;;;15.04;67.52;101956.34;10328646;28;97127;-78
2024/01/26 13:53:16;;;;;;;;;;;;;;;16.51;62.34;101933.63;10333474;28;96876;-78
2024/01/26 13:58:20;;;;;;;;;;;;;;;17.17;60.39;101919.50;10335509;28;96709;-79
2024/01/26 14:03:25;;;;;;;;;;;;;;;16.90;60.67;101924.09;10297727;28;97514;-79
2024/01/26 14:08:30;;;;;;;;;;;;;;;16.96;60.05;101899.94;10294181;28;97205;-79
2024/01/26 14:13:35;;;;;;;;;;;;;;;17.04;59.90;101888.06;10331413;28;96945;-78
2024/01/26 14:18:39;;;;;;;;;;;;;;;16.99;60.27;101890.06;10334992;28;96811;-79
2024/01/26 14:23:48;;;;;;;;;;;;;;;16.64;60.38;101885.25;10304094;28;96693;-78
2024/01/26 14:28:52;;;;;;;;;;;;;;;16.58;60.31;101874.00;10316282;28;96800;-79
2024/01/26 14:33:57;;;;;;;;;;;;;;;17.62;58.54;101867.91;10315745;28;97181;-79
2024/01/26 14:39:08;;;;;;;;;;;;;;;16.84;59.65;101855.22;10292963;28;96749;-78
2024/01/26 14:44:12;;;;;;;;;;;;;;;17.24;59.73;101852.69;10293851;28;96918;-79
2024/01/26 14:49:18;;;;;;;;;;;;;;;16.84;59.96;101842.78;10292744;28;96648;-79
2024/01/26 14:54:25;;;;;;;;;;;;;;;16.52;61.49;101842.31;10292643;28;96862;-78
2024/01/26 14:59:28;;;;;;;;;;;;;;;16.03;63.33;101845.06;10292369;28;97054;-79
2024/01/26 15:04:32;;;;;;;;;;;;;;;15.77;63.87;101841.56;10292154;28;96773;-78
2024/01/26 15:09:37;;;;;;;;;;;;;;;15.33;65.13;101836.94;10293089;28;96637;-78
2024/01/26 15:14:40;;;;;;;;;;;;;;;15.25;65.70;101836.28;10292166;28;97085;-78
2024/01/26 15:19:45;;;;;;;;;;;;;;;15.70;64.95;101834.75;10292091;28;97570;-78
2024/01/26 15:24:51;;;;;;;;;;;;;;;15.81;64.16;101843.19;10290402;28;96606;-78
2024/01/26 15:29:54;;;;;;;;;;;;;;;16.48;63.03;101830.09;10291445;28;96615;-78
2024/01/26 15:34:57;;;;;;;;;;;;;;;15.97;63.96;101830.22;10298864;28;96705;-78
2024/01/26 15:40:02;;;;;;;;;;;;;;;16.07;63.95;101814.81;10332240;28;97179;-78
2024/01/26 15:45:05;;;;;;;;;;;;;;;15.97;64.40;101834.66;10332340;28;97279;-78
2024/01/26 15:50:08;;;;;;;;;;;;;;;15.80;65.08;101825.53;10331927;28;96768;-78
2024/01/26 15:55:13;;;;;;;;;;;;;;;15.48;65.88;101807.22;10325710;28;96793;-78
2024/01/26 16:00:16;;;;;;;;;;;;;;;15.20;66.91;101824.97;10291100;28;97365;-78
2024/01/26 16:05:20;;;;;;;;;;;;;;;14.89;67.95;101813.66;10290313;28;97225;-78
2024/01/26 16:10:24;;;;;;;;;;;;;;;15.04;68.09;101804.34;10291129;28;96614;-78
2024/01/26 16:15:27;;;;;;;;;;;;;;;15.04;68.14;101807.88;10287806;28;96769;-78
2024/01/26 16:20:30;;;;;;;;;;;;;;;15.26;67.66;101811.56;10290270;28;97187;-79
2024/01/26 16:25:36;;;;;;;;;;;;;;;15.13;67.96;101812.00;10293134;28;96772;-78
2024/01/26 16:30:42;;;;;;;;;;;;;;;15.30;67.95;101820.28;10331131;28;97535;-78
2024/01/26 16:35:45;;;;;;;;;;;;;;;15.05;68.67;101812.25;10298065;28;97463;-78
2024/01/26 16:40:50;;;;;;;;;;;;;;;15.04;68.72;101813.16;10289207;28;96780;-78
2024/01/26 16:45:55;;;;;;;;;;;;;;;14.82;69.55;101810.34;10289997;28;97442;-78
2024/01/26 16:50:59;;;;;;;;;;;;;;;14.80;69.92;101805.97;10290003;28;96676;-78
2024/01/26 16:56:06;;;;;;;;;;;;;;;14.69;69.72;101805.47;10289306;28;96744;-78
2024/01/26 17:01:13;;;;;;;;;;;;;;;14.62;70.35;101814.53;10290113;28;96835;-78
2024/01/26 17:06:18;;;;;;;;;;;;;;;14.42;71.06;101815.16;10288047;28;96725;-78
2024/01/26 17:11:23;;;;;;;;;;;;;;;14.26;71.83;101818.31;10288904;28;97316;-78
2024/01/26 17:16:26;;;;;;;;;;;;;;;14.21;72.42;101807.00;10272043;28;97688;-78
2024/01/26 17:21:29;;;;;;;;;;;;;;;14.11;72.93;101806.38;10291740;28;96678;-78
2024/01/26 17:26:34;;;;;;;;;;;;;;;14.07;72.73;101811.81;10294758;28;96778;-78
2024/01/26 17:31:37;;;;;;;;;;;;;;;13.94;73.54;101807.75;10298585;28;96662;-78
2024/01/26 17:36:41;;;;;;;;;;;;;;;13.89;73.66;101809.66;10299165;28;96909;-78
2024/01/26 17:41:45;;;;;;;;;;;;;;;13.83;73.93;101812.50;10298839;28;96658;-78
2024/01/26 17:46:48;;;;;;;;;;;;;;;13.78;74.19;101817.91;10298219;28;96981;-78
2024/01/26 17:51:53;;;;;;;;;;;;;;;13.72;74.18;101814.56;10298605;28;96748;-78
2024/01/26 17:56:59;;;;;;;;;;;;;;;13.63;74.42;101813.91;10296537;28;96633;-78
2024/01/26 18:02:02;;;;;;;;;;;;;;;13.57;74.68;101816.72;10297747;28;96834;-78
2024/01/26 18:07:06;;;;;;;;;;;;;;;13.52;74.89;101833.59;10298053;28;96649;-78
2024/01/26 18:12:14;;;;;;;;;;;;;;;13.53;74.40;101828.31;10298149;28;97031;-78
2024/01/26 18:17:18;;;;;;;;;;;;;;;13.48;74.91;101842.56;10296653;28;97171;-78
2024/01/26 18:22:22;;;;;;;;;;;;;;;13.43;74.81;101847.94;10296955;28;96713;-78
2024/01/26 18:27:28;;;;;;;;;;;;;;;13.44;74.63;101843.53;10324796;28;96807;-78
2024/01/26 18:32:31;;;;;;;;;;;;;;;13.45;74.60;101845.25;10310464;28;96795;-78
2024/01/26 18:37:35;;;;;;;;;;;;;;;13.41;74.81;101855.06;10254717;28;96753;-78
2024/01/26 18:42:39;;;;;;;;;;;;;;;13.36;74.98;101853.44;10270066;28;96714;-78
2024/01/26 18:47:43;;;;;;;;;;;;;;;13.36;74.97;101856.94;10294801;28;96893;-78
2024/01/26 18:52:46;;;;;;;;;;;;;;;13.31;75.00;101858.84;10296249;28;96848;-78
2024/01/26 18:57:51;;;;;;;;;;;;;;;13.30;75.15;101862.41;10295270;28;96725;-78
2024/01/26 19:02:56;;;;;;;;;;;;;;;13.24;75.26;101862.53;10336272;28;96695;-78
2024/01/26 19:07:59;;;;;;;;;;;;;;;13.20;75.64;101865.31;10336459;28;96706;-78
2024/01/26 19:13:05;;;;;;;;;;;;;;;13.15;75.87;101857.50;10303744;28;96706;-78
2024/01/26 19:18:09;;;;;;;;;;;;;;;13.12;75.74;101865.47;10319442;28;96795;-78
2024/01/26 19:23:13;;;;;;;;;;;;;;;13.11;76.09;101855.84;10337174;28;96645;-78
2024/01/26 19:28:18;;;;;;;;;;;;;;;13.12;75.68;101865.47;10333283;28;96669;-78
2024/01/26 19:33:21;;;;;;;;;;;;;;;13.11;75.88;101858.47;10304215;28;97667;-78
2024/01/26 19:38:24;;;;;;;;;;;;;;;13.12;75.66;101857.56;10334501;28;96873;-78
2024/01/26 19:43:29;;;;;;;;;;;;;;;13.14;75.59;101866.31;10335576;28;96646;-78
2024/01/26 19:48:33;;;;;;;;;;;;;;;13.14;75.75;101868.09;10335046;28;97091;-78
2024/01/26 19:53:38;;;;;;;;;;;;;;;13.13;75.76;101858.44;10334453;28;96628;-78
2024/01/26 19:58:46;;;;;;;;;;;;;;;13.10;76.08;101866.44;10296284;28;98549;-75
2024/01/26 20:03:49;;;;;;;;;;;;;;;13.06;76.00;101846.28;10287346;28;98458;-77
2024/01/26 20:08:54;;;;;;;;;;;;;;;13.13;75.61;101854.03;10291549;28;98420;-77
2024/01/26 20:13:59;;;;;;;;;;;;;;;13.09;76.08;101852.34;10292146;28;96893;-77
2024/01/26 20:19:03;;;;;;;;;;;;;;;13.07;75.95;101856.81;10289630;28;97053;-77
2024/01/26 20:24:07;;;;;;;;;;;;;;;13.03;76.15;101857.81;10288293;28;98548;-77
2024/01/26 20:29:16;;;;;;;;;;;;;;;13.01;76.33;101848.16;10286433;28;98709;-77
2024/01/26 20:34:19;;;;;;;;;;;;;;;13.02;76.43;101840.19;10292016;28;98270;-77
2024/01/26 20:39:23;;;;;;;;;;;;;;;12.96;76.66;101844.75;10292088;28;96836;-77
2024/01/26 20:44:28;;;;;;;;;;;;;;;12.95;76.56;101838.59;10291963;28;97305;-77
2024/01/26 20:49:31;;;;;;;;;;;;;;;12.94;76.59;101836.00;10309401;22;98312;-77
2024/01/26 20:54:34;;;;;;;;;;;;;;;12.95;76.48;101833.31;10293341;28;97024;-76
2024/01/26 20:59:39;;;;;;;;;;;;;;;12.98;76.47;101838.53;10316567;28;96995;-78
2024/01/26 21:04:42;;;;;;;;;;;;;;;12.96;76.76;101832.44;10320107;28;96872;-78
2024/01/26 21:09:46;;;;;;;;;;;;;;;12.96;76.64;101836.84;10310471;28;96792;-78
2024/01/26 21:14:50;;;;;;;;;;;;;;;12.90;76.94;101834.31;10305569;28;96989;-79
2024/01/26 21:19:59;;;;;;;;;;;;;;;12.85;76.90;101831.81;10300367;28;96827;-78
2024/01/26 21:25:04;;;;;;;;;;;;;;;12.82;77.20;101829.25;10298761;28;96769;-78
2024/01/26 21:30:09;;;;;;;;;;;;;;;12.80;77.28;101823.13;10332158;28;96811;-79
2024/01/26 21:35:12;;;;;;;;;;;;;;;12.74;77.31;101820.63;10304039;28;97252;-78
2024/01/26 21:40:16;;;;;;;;;;;;;;;12.75;77.61;101818.84;10313615;28;98223;-79
2024/01/26 21:45:21;;;;;;;;;;;;;;;12.70;77.50;101818.97;10299784;28;96951;-78
2024/01/26 21:50:25;;;;;;;;;;;;;;;12.69;77.47;101817.22;10313780;28;96800;-79
2024/01/26 21:55:28;;;;;;;;;;;;;;;12.71;77.47;101825.09;10300212;28;96798;-77
2024/01/26 22:00:32;;;;;;;;;;;;;;;12.77;77.16;101820.56;10293951;28;97178;-78
2024/01/26 22:05:36;;;;;;;;;;;;;;;12.79;77.31;101808.16;10296360;28;97367;-80
2024/01/26 22:10:39;;;;;;;;;;;;;;;12.75;77.37;101808.28;10292978;28;97107;-80
2024/01/26 22:15:44;;;;;;;;;;;;;;;12.75;77.30;101809.16;10291742;28;98091;-80
2024/01/26 22:20:47;;;;;;;;;;;;;;;12.73;77.25;101800.41;10291390;28;96866;-80
2024/01/26 22:25:50;;;;;;;;;;;;;;;12.82;76.75;101804.59;10292204;28;96939;-81
2024/01/26 22:30:55;;;;;;;;;;;;;;;12.86;76.71;101806.25;10289342;28;98714;-81
2024/01/26 22:35:58;;;;;;;;;;;;;;;12.78;76.74;101809.09;10290300;28;97653;-79
2024/01/26 22:41:02;;;;;;;;;;;;;;;12.77;76.91;101812.63;10291633;28;96863;-81
2024/01/26 22:46:07;;;;;;;;;;;;;;;12.77;76.84;101807.34;10291927;28;97494;-80
2024/01/26 22:51:11;;;;;;;;;;;;;;;12.74;76.77;101817.97;10291520;28;98538;-79
2024/01/26 22:56:14;;;;;;;;;;;;;;;12.69;76.95;101805.81;10292271;28;97060;-80
2024/01/26 23:01:19;;;;;;;;;;;;;;;12.61;76.89;101815.63;10289992;28;96905;-81
2024/01/26 23:06:22;;;;;;;;;;;;;;;12.55;77.29;101801.66;10290469;28;96842;-81
2024/01/26 23:11:28;;;;;;;;;;;;;;;12.58;77.03;101806.88;10289573;28;97295;-81
2024/01/26 23:16:33;;;;;;;;;;;;;;;12.51;77.16;101804.41;10291954;28;98408;-80
2024/01/26 23:21:36;;;;;;;;;;;;;;;12.47;77.56;101800.97;10290172;28;97054;-80
2024/01/26 23:26:39;;;;;;;;;;;;;;;12.45;77.49;101799.25;10290841;28;96913;-81
2024/01/26 23:31:45;;;;;;;;;;;;;;;12.49;77.25;101790.38;10290877;28;97404;-80
2024/01/26 23:36:48;;;;;;;;;;;;;;;12.40;77.55;101796.75;10289851;28;97095;-80
2024/01/26 23:41:52;;;;;;;;;;;;;;;12.39;77.62;101787.06;10290086;28;98440;-80
2024/01/26 23:46:57;;;;;;;;;;;;;;;12.41;77.46;101785.25;10286762;28;98543;-80
2024/01/26 23:52:00;;;;;;;;;;;;;;;12.39;77.76;101779.16;10297843;28;96810;-78
2024/01/26 23:57:03;;;;;;;;;;;;;;;12.42;77.31;101788.78;10299289;28;96749;-79
